sensor_id;sensor_type;location;lat;lon;timestamp;P1;durP1;ratioP1;P2;durP2;ratioP2
29854;SDS011;16733;48.738;9.106;2023-06-22T00:00:27;8.30;;;4.90;;
29854;SDS011;16733;48.738;9.106;2023-06-22T00:02:53;11.57;;;4.80;;
29854;SDS011;16733;48.738;9.106;2023-06-22T00:05:19;9.75;;;5.63;;
29854;SDS011;16733;48.738;9.106;2023-06-22T00:07:45;12.27;;;5.30;;
29854;SDS011;16733;48.738;9.106;2023-06-22T00:10:11;12.77;;;5.38;;
29854;SDS011;16733;48.738;9.106;2023-06-22T00:12:37;7.82;;;4.53;;
29854;SDS011;16733;48.738;9.106;2023-06-22T00:15:03;7.07;;;5.03;;
29854;SDS011;16733;48.738;9.106;2023-06-22T00:17:29;9.48;;;5.25;;
29854;SDS011;16733;48.738;9.106;2023-06-22T00:19:55;8.95;;;5.68;;
29854;SDS011;16733;48.738;9.106;2023-06-22T00:22:23;9.13;;;5.07;;
29854;SDS011;16733;48.738;9.106;2023-06-22T00:24:53;8.02;;;5.20;;
29854;SDS011;16733;48.738;9.106;2023-06-22T00:27:19;9.13;;;4.90;;
29854;SDS011;16733;48.738;9.106;2023-06-22T00:29:45;8.32;;;4.68;;
29854;SDS011;16733;48.738;9.106;2023-06-22T00:32:11;7.45;;;5.25;;
29854;SDS011;16733;48.738;9.106;2023-06-22T00:34:37;11.20;;;5.28;;
29854;SDS011;16733;48.738;9.106;2023-06-22T00:37:03;9.05;;;5.47;;
29854;SDS011;16733;48.738;9.106;2023-06-22T00:39:29;9.43;;;4.82;;
29854;SDS011;16733;48.738;9.106;2023-06-22T00:41:58;8.13;;;4.97;;
29854;SDS011;16733;48.738;9.106;2023-06-22T00:44:24;8.95;;;5.65;;
29854;SDS011;16733;48.738;9.106;2023-06-22T00:46:51;10.02;;;5.40;;
29854;SDS011;16733;48.738;9.106;2023-06-22T00:49:17;10.48;;;5.28;;
29854;SDS011;16733;48.738;9.106;2023-06-22T00:51:43;8.82;;;5.10;;
29854;SDS011;16733;48.738;9.106;2023-06-22T00:54:10;13.40;;;5.60;;
29854;SDS011;16733;48.738;9.106;2023-06-22T00:56:38;12.57;;;5.03;;
29854;SDS011;16733;48.738;9.106;2023-06-22T00:59:04;10.25;;;5.03;;
29854;SDS011;16733;48.738;9.106;2023-06-22T01:01:30;12.80;;;5.10;;
29854;SDS011;16733;48.738;9.106;2023-06-22T01:03:57;9.05;;;5.63;;
29854;SDS011;16733;48.738;9.106;2023-06-22T01:06:34;11.68;;;5.47;;
29854;SDS011;16733;48.738;9.106;2023-06-22T01:09:06;11.23;;;5.57;;
29854;SDS011;16733;48.738;9.106;2023-06-22T01:11:41;11.32;;;5.15;;
29854;SDS011;16733;48.738;9.106;2023-06-22T01:16:55;9.88;;;5.70;;
29854;SDS011;16733;48.738;9.106;2023-06-22T01:22:00;10.20;;;4.65;;
29854;SDS011;16733;48.738;9.106;2023-06-22T01:24:32;12.48;;;5.38;;
29854;SDS011;16733;48.738;9.106;2023-06-22T01:29:47;10.80;;;5.28;;
29854;SDS011;16733;48.738;9.106;2023-06-22T01:32:14;8.68;;;5.28;;
29854;SDS011;16733;48.738;9.106;2023-06-22T01:34:40;8.32;;;5.25;;
29854;SDS011;16733;48.738;9.106;2023-06-22T01:37:06;9.30;;;4.78;;
29854;SDS011;16733;48.738;9.106;2023-06-22T01:39:33;10.73;;;5.80;;
29854;SDS011;16733;48.738;9.106;2023-06-22T01:41:59;14.50;;;6.32;;
29854;SDS011;16733;48.738;9.106;2023-06-22T01:44:26;8.90;;;5.30;;
29854;SDS011;16733;48.738;9.106;2023-06-22T01:46:52;8.93;;;4.80;;
29854;SDS011;16733;48.738;9.106;2023-06-22T01:49:18;7.50;;;4.53;;
29854;SDS011;16733;48.738;9.106;2023-06-22T01:51:44;7.05;;;4.32;;
29854;SDS011;16733;48.738;9.106;2023-06-22T01:54:10;12.52;;;4.90;;
29854;SDS011;16733;48.738;9.106;2023-06-22T01:56:36;11.00;;;5.13;;
29854;SDS011;16733;48.738;9.106;2023-06-22T01:59:04;9.95;;;5.30;;
29854;SDS011;16733;48.738;9.106;2023-06-22T02:01:35;6.88;;;4.63;;
29854;SDS011;16733;48.738;9.106;2023-06-22T02:04:06;8.38;;;4.85;;
29854;SDS011;16733;48.738;9.106;2023-06-22T02:06:37;10.20;;;4.93;;
29854;SDS011;16733;48.738;9.106;2023-06-22T02:09:08;7.95;;;4.97;;
29854;SDS011;16733;48.738;9.106;2023-06-22T02:11:35;10.75;;;4.70;;
29854;SDS011;16733;48.738;9.106;2023-06-22T02:14:02;8.00;;;4.85;;
29854;SDS011;16733;48.738;9.106;2023-06-22T02:16:29;9.85;;;4.97;;
29854;SDS011;16733;48.738;9.106;2023-06-22T02:18:57;8.30;;;5.05;;
29854;SDS011;16733;48.738;9.106;2023-06-22T02:21:28;7.05;;;4.50;;
29854;SDS011;16733;48.738;9.106;2023-06-22T02:23:54;12.35;;;5.45;;
29854;SDS011;16733;48.738;9.106;2023-06-22T02:26:20;11.98;;;6.50;;
29854;SDS011;16733;48.738;9.106;2023-06-22T02:28:47;8.13;;;5.32;;
29854;SDS011;16733;48.738;9.106;2023-06-22T02:31:13;8.43;;;5.15;;
29854;SDS011;16733;48.738;9.106;2023-06-22T02:33:38;9.18;;;5.80;;
29854;SDS011;16733;48.738;9.106;2023-06-22T02:36:05;10.20;;;5.38;;
29854;SDS011;16733;48.738;9.106;2023-06-22T02:38:34;9.75;;;6.00;;
29854;SDS011;16733;48.738;9.106;2023-06-22T02:41:01;12.05;;;6.53;;
29854;SDS011;16733;48.738;9.106;2023-06-22T02:43:27;11.20;;;6.40;;
29854;SDS011;16733;48.738;9.106;2023-06-22T02:45:53;7.65;;;5.78;;
29854;SDS011;16733;48.738;9.106;2023-06-22T02:48:19;8.40;;;5.68;;
29854;SDS011;16733;48.738;9.106;2023-06-22T02:50:45;11.25;;;6.30;;
29854;SDS011;16733;48.738;9.106;2023-06-22T02:53:11;8.73;;;6.00;;
29854;SDS011;16733;48.738;9.106;2023-06-22T02:55:37;9.93;;;6.07;;
29854;SDS011;16733;48.738;9.106;2023-06-22T02:58:04;10.35;;;6.22;;
29854;SDS011;16733;48.738;9.106;2023-06-22T03:00:31;10.50;;;6.55;;
29854;SDS011;16733;48.738;9.106;2023-06-22T03:02:57;12.35;;;6.60;;
29854;SDS011;16733;48.738;9.106;2023-06-22T03:05:23;9.63;;;6.68;;
29854;SDS011;16733;48.738;9.106;2023-06-22T03:07:49;13.00;;;7.15;;
29854;SDS011;16733;48.738;9.106;2023-06-22T03:10:16;10.90;;;6.90;;
29854;SDS011;16733;48.738;9.106;2023-06-22T03:12:42;10.48;;;6.53;;
29854;SDS011;16733;48.738;9.106;2023-06-22T03:15:09;10.82;;;6.97;;
29854;SDS011;16733;48.738;9.106;2023-06-22T03:17:36;12.15;;;7.28;;
29854;SDS011;16733;48.738;9.106;2023-06-22T03:20:03;16.00;;;6.60;;
29854;SDS011;16733;48.738;9.106;2023-06-22T03:22:38;10.85;;;6.53;;
29854;SDS011;16733;48.738;9.106;2023-06-22T03:25:04;11.02;;;6.43;;
29854;SDS011;16733;48.738;9.106;2023-06-22T03:27:35;11.15;;;6.88;;
29854;SDS011;16733;48.738;9.106;2023-06-22T03:30:01;10.45;;;6.90;;
29854;SDS011;16733;48.738;9.106;2023-06-22T03:32:27;16.70;;;6.97;;
29854;SDS011;16733;48.738;9.106;2023-06-22T03:34:53;13.73;;;6.82;;
29854;SDS011;16733;48.738;9.106;2023-06-22T03:37:19;11.73;;;6.50;;
29854;SDS011;16733;48.738;9.106;2023-06-22T03:39:46;17.55;;;6.50;;
29854;SDS011;16733;48.738;9.106;2023-06-22T03:42:12;9.40;;;5.90;;
29854;SDS011;16733;48.738;9.106;2023-06-22T03:44:38;12.07;;;7.03;;
29854;SDS011;16733;48.738;9.106;2023-06-22T03:47:05;13.88;;;7.13;;
29854;SDS011;16733;48.738;9.106;2023-06-22T03:49:32;11.57;;;7.00;;
29854;SDS011;16733;48.738;9.106;2023-06-22T03:51:59;13.18;;;6.55;;
29854;SDS011;16733;48.738;9.106;2023-06-22T03:54:25;12.45;;;6.43;;
29854;SDS011;16733;48.738;9.106;2023-06-22T03:56:51;10.57;;;6.85;;
29854;SDS011;16733;48.738;9.106;2023-06-22T03:59:17;12.43;;;6.85;;
29854;SDS011;16733;48.738;9.106;2023-06-22T04:01:43;10.98;;;6.32;;
29854;SDS011;16733;48.738;9.106;2023-06-22T04:04:09;8.50;;;6.05;;
29854;SDS011;16733;48.738;9.106;2023-06-22T04:06:35;13.13;;;6.53;;
29854;SDS011;16733;48.738;9.106;2023-06-22T04:09:02;11.27;;;6.95;;
29854;SDS011;16733;48.738;9.106;2023-06-22T04:11:28;12.10;;;7.22;;
29854;SDS011;16733;48.738;9.106;2023-06-22T04:13:54;15.10;;;6.88;;
29854;SDS011;16733;48.738;9.106;2023-06-22T04:16:20;14.02;;;6.78;;
29854;SDS011;16733;48.738;9.106;2023-06-22T04:18:46;11.93;;;6.93;;
29854;SDS011;16733;48.738;9.106;2023-06-22T04:21:12;10.90;;;6.38;;
29854;SDS011;16733;48.738;9.106;2023-06-22T04:23:38;14.75;;;6.75;;
29854;SDS011;16733;48.738;9.106;2023-06-22T04:26:04;11.70;;;6.38;;
29854;SDS011;16733;48.738;9.106;2023-06-22T04:28:30;12.18;;;6.88;;
29854;SDS011;16733;48.738;9.106;2023-06-22T04:31:01;10.93;;;6.72;;
29854;SDS011;16733;48.738;9.106;2023-06-22T04:33:27;13.00;;;6.07;;
29854;SDS011;16733;48.738;9.106;2023-06-22T04:35:56;11.88;;;6.28;;
29854;SDS011;16733;48.738;9.106;2023-06-22T04:38:23;11.43;;;6.45;;
29854;SDS011;16733;48.738;9.106;2023-06-22T04:40:49;10.45;;;6.40;;
29854;SDS011;16733;48.738;9.106;2023-06-22T04:43:15;12.88;;;6.60;;
29854;SDS011;16733;48.738;9.106;2023-06-22T04:45:41;12.35;;;6.57;;
29854;SDS011;16733;48.738;9.106;2023-06-22T04:48:06;11.43;;;6.75;;
29854;SDS011;16733;48.738;9.106;2023-06-22T04:50:34;14.73;;;6.72;;
29854;SDS011;16733;48.738;9.106;2023-06-22T04:53:03;15.32;;;6.35;;
29854;SDS011;16733;48.738;9.106;2023-06-22T04:55:30;12.57;;;6.28;;
29854;SDS011;16733;48.738;9.106;2023-06-22T04:57:57;10.70;;;6.40;;
29854;SDS011;16733;48.738;9.106;2023-06-22T05:02:55;8.10;;;6.05;;
29854;SDS011;16733;48.738;9.106;2023-06-22T05:05:23;12.45;;;6.82;;
29854;SDS011;16733;48.738;9.106;2023-06-22T05:07:50;8.48;;;5.97;;
29854;SDS011;16733;48.738;9.106;2023-06-22T05:10:18;12.05;;;6.20;;
29854;SDS011;16733;48.738;9.106;2023-06-22T05:12:46;11.10;;;6.72;;
29854;SDS011;16733;48.738;9.106;2023-06-22T05:15:12;12.98;;;6.65;;
29854;SDS011;16733;48.738;9.106;2023-06-22T05:17:38;10.07;;;6.35;;
29854;SDS011;16733;48.738;9.106;2023-06-22T05:20:10;14.45;;;6.22;;
29854;SDS011;16733;48.738;9.106;2023-06-22T05:22:36;8.93;;;6.28;;
29854;SDS011;16733;48.738;9.106;2023-06-22T05:25:02;8.77;;;5.93;;
29854;SDS011;16733;48.738;9.106;2023-06-22T05:27:27;13.23;;;6.40;;
29854;SDS011;16733;48.738;9.106;2023-06-22T05:29:53;10.50;;;6.38;;
29854;SDS011;16733;48.738;9.106;2023-06-22T05:32:18;13.70;;;5.85;;
29854;SDS011;16733;48.738;9.106;2023-06-22T05:34:44;7.13;;;5.38;;
29854;SDS011;16733;48.738;9.106;2023-06-22T05:37:10;10.10;;;5.35;;
29854;SDS011;16733;48.738;9.106;2023-06-22T05:39:37;10.13;;;5.97;;
29854;SDS011;16733;48.738;9.106;2023-06-22T05:42:04;11.27;;;6.00;;
29854;SDS011;16733;48.738;9.106;2023-06-22T05:44:31;12.15;;;5.80;;
29854;SDS011;16733;48.738;9.106;2023-06-22T05:46:57;10.25;;;5.13;;
29854;SDS011;16733;48.738;9.106;2023-06-22T05:49:22;10.02;;;5.78;;
29854;SDS011;16733;48.738;9.106;2023-06-22T05:51:49;8.60;;;5.28;;
29854;SDS011;16733;48.738;9.106;2023-06-22T05:54:15;11.07;;;5.60;;
29854;SDS011;16733;48.738;9.106;2023-06-22T05:56:42;13.13;;;5.20;;
29854;SDS011;16733;48.738;9.106;2023-06-22T05:59:08;12.98;;;5.15;;
29854;SDS011;16733;48.738;9.106;2023-06-22T06:01:34;13.52;;;5.10;;
29854;SDS011;16733;48.738;9.106;2023-06-22T06:04:01;10.32;;;5.05;;
29854;SDS011;16733;48.738;9.106;2023-06-22T06:06:28;8.95;;;5.00;;
29854;SDS011;16733;48.738;9.106;2023-06-22T06:08:54;8.98;;;5.30;;
29854;SDS011;16733;48.738;9.106;2023-06-22T06:11:21;8.98;;;5.15;;
29854;SDS011;16733;48.738;9.106;2023-06-22T06:13:47;9.88;;;5.38;;
29854;SDS011;16733;48.738;9.106;2023-06-22T06:16:12;7.32;;;4.57;;
29854;SDS011;16733;48.738;9.106;2023-06-22T06:18:38;14.07;;;4.90;;
29854;SDS011;16733;48.738;9.106;2023-06-22T06:21:04;8.05;;;4.93;;
29854;SDS011;16733;48.738;9.106;2023-06-22T06:23:29;8.68;;;5.65;;
29854;SDS011;16733;48.738;9.106;2023-06-22T06:25:55;7.22;;;5.13;;
29854;SDS011;16733;48.738;9.106;2023-06-22T06:28:21;16.77;;;6.15;;
29854;SDS011;16733;48.738;9.106;2023-06-22T06:30:47;10.77;;;4.88;;
29854;SDS011;16733;48.738;9.106;2023-06-22T06:33:12;10.73;;;4.47;;
29854;SDS011;16733;48.738;9.106;2023-06-22T06:35:38;11.50;;;5.30;;
29854;SDS011;16733;48.738;9.106;2023-06-22T06:38:04;13.18;;;4.45;;
29854;SDS011;16733;48.738;9.106;2023-06-22T06:40:30;7.10;;;4.68;;
29854;SDS011;16733;48.738;9.106;2023-06-22T06:42:56;12.18;;;4.70;;
29854;SDS011;16733;48.738;9.106;2023-06-22T06:45:22;9.32;;;4.65;;
29854;SDS011;16733;48.738;9.106;2023-06-22T06:47:48;10.80;;;3.95;;
29854;SDS011;16733;48.738;9.106;2023-06-22T06:50:15;14.45;;;3.95;;
29854;SDS011;16733;48.738;9.106;2023-06-22T06:52:42;9.55;;;4.22;;
29854;SDS011;16733;48.738;9.106;2023-06-22T06:55:08;7.82;;;4.90;;
29854;SDS011;16733;48.738;9.106;2023-06-22T06:57:40;7.32;;;4.32;;
29854;SDS011;16733;48.738;9.106;2023-06-22T07:00:10;9.93;;;4.85;;
29854;SDS011;16733;48.738;9.106;2023-06-22T07:02:42;12.95;;;5.00;;
29854;SDS011;16733;48.738;9.106;2023-06-22T07:05:09;9.90;;;4.00;;
29854;SDS011;16733;48.738;9.106;2023-06-22T07:07:35;7.55;;;3.90;;
29854;SDS011;16733;48.738;9.106;2023-06-22T07:10:01;5.82;;;3.72;;
29854;SDS011;16733;48.738;9.106;2023-06-22T07:12:27;12.18;;;4.40;;
29854;SDS011;16733;48.738;9.106;2023-06-22T07:14:53;9.35;;;4.07;;
29854;SDS011;16733;48.738;9.106;2023-06-22T07:17:18;11.52;;;3.88;;
29854;SDS011;16733;48.738;9.106;2023-06-22T07:19:44;9.10;;;3.60;;
29854;SDS011;16733;48.738;9.106;2023-06-22T07:22:10;8.68;;;3.60;;
29854;SDS011;16733;48.738;9.106;2023-06-22T07:24:36;7.68;;;3.45;;
29854;SDS011;16733;48.738;9.106;2023-06-22T07:27:02;13.25;;;4.18;;
29854;SDS011;16733;48.738;9.106;2023-06-22T07:29:28;7.38;;;3.83;;
29854;SDS011;16733;48.738;9.106;2023-06-22T07:31:54;10.55;;;3.95;;
29854;SDS011;16733;48.738;9.106;2023-06-22T07:34:21;10.38;;;3.72;;
29854;SDS011;16733;48.738;9.106;2023-06-22T07:36:47;6.95;;;3.17;;
29854;SDS011;16733;48.738;9.106;2023-06-22T07:39:13;11.32;;;3.53;;
29854;SDS011;16733;48.738;9.106;2023-06-22T07:41:39;9.18;;;3.47;;
29854;SDS011;16733;48.738;9.106;2023-06-22T07:44:08;5.90;;;3.20;;
29854;SDS011;16733;48.738;9.106;2023-06-22T07:46:34;11.15;;;3.15;;
29854;SDS011;16733;48.738;9.106;2023-06-22T07:48:59;8.93;;;2.60;;
29854;SDS011;16733;48.738;9.106;2023-06-22T07:51:26;7.22;;;3.30;;
29854;SDS011;16733;48.738;9.106;2023-06-22T07:53:52;12.07;;;3.63;;
29854;SDS011;16733;48.738;9.106;2023-06-22T07:56:17;6.80;;;3.03;;
29854;SDS011;16733;48.738;9.106;2023-06-22T07:58:46;7.28;;;2.67;;
29854;SDS011;16733;48.738;9.106;2023-06-22T08:01:12;6.80;;;2.45;;
29854;SDS011;16733;48.738;9.106;2023-06-22T08:03:41;6.10;;;2.35;;
29854;SDS011;16733;48.738;9.106;2023-06-22T08:06:07;6.95;;;3.00;;
29854;SDS011;16733;48.738;9.106;2023-06-22T08:08:34;7.53;;;2.92;;
29854;SDS011;16733;48.738;9.106;2023-06-22T08:11:00;7.93;;;2.88;;
29854;SDS011;16733;48.738;9.106;2023-06-22T08:13:26;8.48;;;2.25;;
29854;SDS011;16733;48.738;9.106;2023-06-22T08:15:51;8.18;;;2.97;;
29854;SDS011;16733;48.738;9.106;2023-06-22T08:18:17;10.07;;;3.33;;
29854;SDS011;16733;48.738;9.106;2023-06-22T08:20:42;6.72;;;2.60;;
29854;SDS011;16733;48.738;9.106;2023-06-22T08:23:11;6.32;;;2.83;;
29854;SDS011;16733;48.738;9.106;2023-06-22T08:25:36;5.70;;;2.80;;
29854;SDS011;16733;48.738;9.106;2023-06-22T08:28:03;9.38;;;3.75;;
29854;SDS011;16733;48.738;9.106;2023-06-22T08:30:29;8.48;;;2.95;;
29854;SDS011;16733;48.738;9.106;2023-06-22T08:32:54;7.78;;;2.78;;
29854;SDS011;16733;48.738;9.106;2023-06-22T08:35:23;8.48;;;2.70;;
29854;SDS011;16733;48.738;9.106;2023-06-22T08:37:49;8.38;;;3.25;;
29854;SDS011;16733;48.738;9.106;2023-06-22T08:40:17;10.50;;;2.97;;
29854;SDS011;16733;48.738;9.106;2023-06-22T08:42:45;13.75;;;3.40;;
29854;SDS011;16733;48.738;9.106;2023-06-22T08:45:11;10.73;;;3.50;;
29854;SDS011;16733;48.738;9.106;2023-06-22T08:47:37;7.80;;;2.70;;
29854;SDS011;16733;48.738;9.106;2023-06-22T08:50:03;11.98;;;3.13;;
29854;SDS011;16733;48.738;9.106;2023-06-22T08:52:29;14.13;;;3.13;;
29854;SDS011;16733;48.738;9.106;2023-06-22T08:54:54;10.20;;;3.35;;
29854;SDS011;16733;48.738;9.106;2023-06-22T08:57:20;7.47;;;2.92;;
29854;SDS011;16733;48.738;9.106;2023-06-22T08:59:46;5.07;;;2.67;;
29854;SDS011;16733;48.738;9.106;2023-06-22T09:02:12;8.30;;;2.95;;
29854;SDS011;16733;48.738;9.106;2023-06-22T09:04:37;8.30;;;3.28;;
29854;SDS011;16733;48.738;9.106;2023-06-22T09:07:03;11.95;;;3.20;;
29854;SDS011;16733;48.738;9.106;2023-06-22T09:09:29;8.75;;;2.88;;
29854;SDS011;16733;48.738;9.106;2023-06-22T09:11:55;9.27;;;3.10;;
29854;SDS011;16733;48.738;9.106;2023-06-22T09:14:20;9.65;;;3.10;;
29854;SDS011;16733;48.738;9.106;2023-06-22T09:16:46;7.10;;;3.08;;
29854;SDS011;16733;48.738;9.106;2023-06-22T09:19:12;6.00;;;2.83;;
29854;SDS011;16733;48.738;9.106;2023-06-22T09:21:37;11.98;;;3.08;;
29854;SDS011;16733;48.738;9.106;2023-06-22T09:24:03;8.00;;;3.10;;
29854;SDS011;16733;48.738;9.106;2023-06-22T09:26:29;14.95;;;3.15;;
29854;SDS011;16733;48.738;9.106;2023-06-22T09:28:55;4.90;;;3.00;;
29854;SDS011;16733;48.738;9.106;2023-06-22T09:31:20;8.75;;;3.22;;
29854;SDS011;16733;48.738;9.106;2023-06-22T09:33:54;10.40;;;3.65;;
29854;SDS011;16733;48.738;9.106;2023-06-22T09:36:20;7.45;;;2.80;;
29854;SDS011;16733;48.738;9.106;2023-06-22T09:38:47;9.45;;;3.30;;
29854;SDS011;16733;48.738;9.106;2023-06-22T09:41:14;7.32;;;3.05;;
29854;SDS011;16733;48.738;9.106;2023-06-22T09:43:40;7.90;;;3.58;;
29854;SDS011;16733;48.738;9.106;2023-06-22T09:46:06;7.68;;;3.08;;
29854;SDS011;16733;48.738;9.106;2023-06-22T09:48:32;10.38;;;3.10;;
29854;SDS011;16733;48.738;9.106;2023-06-22T09:50:57;8.63;;;2.97;;
29854;SDS011;16733;48.738;9.106;2023-06-22T09:53:23;10.40;;;3.22;;
29854;SDS011;16733;48.738;9.106;2023-06-22T09:55:49;9.88;;;4.43;;
29854;SDS011;16733;48.738;9.106;2023-06-22T09:58:14;11.63;;;3.33;;
29854;SDS011;16733;48.738;9.106;2023-06-22T10:00:40;9.32;;;3.67;;
29854;SDS011;16733;48.738;9.106;2023-06-22T10:03:06;10.02;;;3.38;;
29854;SDS011;16733;48.738;9.106;2023-06-22T10:05:35;9.65;;;3.53;;
29854;SDS011;16733;48.738;9.106;2023-06-22T10:08:01;5.75;;;2.75;;
29854;SDS011;16733;48.738;9.106;2023-06-22T10:10:26;9.10;;;3.10;;
29854;SDS011;16733;48.738;9.106;2023-06-22T10:12:56;13.90;;;3.33;;
29854;SDS011;16733;48.738;9.106;2023-06-22T10:15:23;4.78;;;2.72;;
29854;SDS011;16733;48.738;9.106;2023-06-22T10:17:49;9.48;;;3.17;;
29854;SDS011;16733;48.738;9.106;2023-06-22T10:20:14;13.43;;;3.30;;
29854;SDS011;16733;48.738;9.106;2023-06-22T10:22:44;11.93;;;3.15;;
29854;SDS011;16733;48.738;9.106;2023-06-22T10:25:10;10.82;;;3.20;;
29854;SDS011;16733;48.738;9.106;2023-06-22T10:27:38;7.82;;;3.33;;
29854;SDS011;16733;48.738;9.106;2023-06-22T10:30:07;11.75;;;2.97;;
29854;SDS011;16733;48.738;9.106;2023-06-22T10:32:34;9.75;;;3.33;;
29854;SDS011;16733;48.738;9.106;2023-06-22T10:35:00;12.55;;;3.30;;
29854;SDS011;16733;48.738;9.106;2023-06-22T10:37:25;6.25;;;3.10;;
29854;SDS011;16733;48.738;9.106;2023-06-22T10:39:51;6.65;;;2.95;;
29854;SDS011;16733;48.738;9.106;2023-06-22T10:42:16;9.63;;;3.08;;
29854;SDS011;16733;48.738;9.106;2023-06-22T10:44:42;8.25;;;3.13;;
29854;SDS011;16733;48.738;9.106;2023-06-22T10:47:09;9.80;;;4.13;;
29854;SDS011;16733;48.738;9.106;2023-06-22T10:49:37;9.25;;;3.00;;
29854;SDS011;16733;48.738;9.106;2023-06-22T10:52:06;8.57;;;3.28;;
29854;SDS011;16733;48.738;9.106;2023-06-22T10:54:32;5.72;;;2.80;;
29854;SDS011;16733;48.738;9.106;2023-06-22T10:56:59;9.15;;;3.70;;
29854;SDS011;16733;48.738;9.106;2023-06-22T10:59:25;8.10;;;3.25;;
29854;SDS011;16733;48.738;9.106;2023-06-22T11:01:52;9.93;;;3.10;;
29854;SDS011;16733;48.738;9.106;2023-06-22T11:04:18;12.98;;;3.42;;
29854;SDS011;16733;48.738;9.106;2023-06-22T11:06:44;9.35;;;2.88;;
29854;SDS011;16733;48.738;9.106;2023-06-22T11:09:09;8.15;;;3.08;;
29854;SDS011;16733;48.738;9.106;2023-06-22T11:11:35;14.48;;;3.58;;
29854;SDS011;16733;48.738;9.106;2023-06-22T11:14:00;9.05;;;2.85;;
29854;SDS011;16733;48.738;9.106;2023-06-22T11:16:27;6.35;;;2.80;;
29854;SDS011;16733;48.738;9.106;2023-06-22T11:18:52;14.88;;;3.28;;
29854;SDS011;16733;48.738;9.106;2023-06-22T11:21:18;12.35;;;2.95;;
29854;SDS011;16733;48.738;9.106;2023-06-22T11:23:43;11.02;;;2.83;;
29854;SDS011;16733;48.738;9.106;2023-06-22T11:26:10;10.75;;;3.85;;
29854;SDS011;16733;48.738;9.106;2023-06-22T11:28:35;15.60;;;3.80;;
29854;SDS011;16733;48.738;9.106;2023-06-22T11:31:01;9.57;;;3.08;;
29854;SDS011;16733;48.738;9.106;2023-06-22T11:33:26;9.57;;;3.38;;
29854;SDS011;16733;48.738;9.106;2023-06-22T11:35:52;10.80;;;3.90;;
29854;SDS011;16733;48.738;9.106;2023-06-22T11:38:18;10.07;;;3.65;;
29854;SDS011;16733;48.738;9.106;2023-06-22T11:40:43;9.15;;;3.15;;
29854;SDS011;16733;48.738;9.106;2023-06-22T11:43:09;10.20;;;3.00;;
29854;SDS011;16733;48.738;9.106;2023-06-22T11:45:35;6.63;;;3.40;;
29854;SDS011;16733;48.738;9.106;2023-06-22T11:48:00;6.65;;;3.35;;
29854;SDS011;16733;48.738;9.106;2023-06-22T11:50:26;7.07;;;3.03;;
29854;SDS011;16733;48.738;9.106;2023-06-22T11:52:53;12.45;;;3.60;;
29854;SDS011;16733;48.738;9.106;2023-06-22T11:55:19;10.88;;;3.25;;
29854;SDS011;16733;48.738;9.106;2023-06-22T11:57:54;13.13;;;3.03;;
29854;SDS011;16733;48.738;9.106;2023-06-22T12:00:21;10.07;;;2.90;;
29854;SDS011;16733;48.738;9.106;2023-06-22T12:02:49;9.50;;;3.25;;
29854;SDS011;16733;48.738;9.106;2023-06-22T12:05:16;9.95;;;3.72;;
29854;SDS011;16733;48.738;9.106;2023-06-22T12:07:43;8.68;;;3.45;;
29854;SDS011;16733;48.738;9.106;2023-06-22T12:10:08;9.07;;;3.08;;
29854;SDS011;16733;48.738;9.106;2023-06-22T12:12:34;11.75;;;3.80;;
29854;SDS011;16733;48.738;9.106;2023-06-22T12:15:00;9.15;;;3.25;;
29854;SDS011;16733;48.738;9.106;2023-06-22T12:17:28;13.30;;;4.22;;
29854;SDS011;16733;48.738;9.106;2023-06-22T12:19:55;14.15;;;4.88;;
29854;SDS011;16733;48.738;9.106;2023-06-22T12:22:21;9.57;;;3.67;;
29854;SDS011;16733;48.738;9.106;2023-06-22T12:24:47;11.77;;;3.38;;
29854;SDS011;16733;48.738;9.106;2023-06-22T12:27:14;8.38;;;4.07;;
29854;SDS011;16733;48.738;9.106;2023-06-22T12:29:47;12.70;;;3.17;;
29854;SDS011;16733;48.738;9.106;2023-06-22T12:32:13;13.77;;;3.63;;
29854;SDS011;16733;48.738;9.106;2023-06-22T12:34:39;11.43;;;3.38;;
29854;SDS011;16733;48.738;9.106;2023-06-22T12:37:05;15.50;;;3.20;;
29854;SDS011;16733;48.738;9.106;2023-06-22T12:39:32;11.85;;;3.20;;
29854;SDS011;16733;48.738;9.106;2023-06-22T12:41:58;9.30;;;3.03;;
29854;SDS011;16733;48.738;9.106;2023-06-22T12:44:24;8.90;;;3.42;;
29854;SDS011;16733;48.738;9.106;2023-06-22T12:46:50;14.75;;;3.67;;
29854;SDS011;16733;48.738;9.106;2023-06-22T12:49:16;6.35;;;3.30;;
29854;SDS011;16733;48.738;9.106;2023-06-22T12:51:42;17.52;;;3.53;;
29854;SDS011;16733;48.738;9.106;2023-06-22T12:54:11;12.88;;;3.53;;
29854;SDS011;16733;48.738;9.106;2023-06-22T12:56:37;8.93;;;3.10;;
29854;SDS011;16733;48.738;9.106;2023-06-22T12:59:04;10.55;;;3.47;;
29854;SDS011;16733;48.738;9.106;2023-06-22T13:01:31;9.85;;;3.40;;
29854;SDS011;16733;48.738;9.106;2023-06-22T13:03:57;9.57;;;3.45;;
29854;SDS011;16733;48.738;9.106;2023-06-22T13:06:24;10.32;;;3.25;;
29854;SDS011;16733;48.738;9.106;2023-06-22T13:08:50;9.80;;;4.18;;
29854;SDS011;16733;48.738;9.106;2023-06-22T13:11:16;13.35;;;3.42;;
29854;SDS011;16733;48.738;9.106;2023-06-22T13:13:43;11.48;;;3.65;;
29854;SDS011;16733;48.738;9.106;2023-06-22T13:16:09;13.02;;;3.45;;
29854;SDS011;16733;48.738;9.106;2023-06-22T13:18:35;8.60;;;3.47;;
29854;SDS011;16733;48.738;9.106;2023-06-22T13:21:01;10.00;;;3.60;;
29854;SDS011;16733;48.738;9.106;2023-06-22T13:23:27;13.82;;;3.47;;
29854;SDS011;16733;48.738;9.106;2023-06-22T13:25:53;11.68;;;3.42;;
29854;SDS011;16733;48.738;9.106;2023-06-22T13:28:19;8.52;;;3.33;;
29854;SDS011;16733;48.738;9.106;2023-06-22T13:30:46;8.60;;;3.60;;
29854;SDS011;16733;48.738;9.106;2023-06-22T13:33:12;7.63;;;3.83;;
29854;SDS011;16733;48.738;9.106;2023-06-22T13:35:38;12.57;;;3.78;;
29854;SDS011;16733;48.738;9.106;2023-06-22T13:38:04;9.38;;;3.28;;
29854;SDS011;16733;48.738;9.106;2023-06-22T13:40:30;11.75;;;3.28;;
29854;SDS011;16733;48.738;9.106;2023-06-22T13:42:56;7.40;;;3.20;;
29854;SDS011;16733;48.738;9.106;2023-06-22T13:45:22;8.68;;;3.17;;
29854;SDS011;16733;48.738;9.106;2023-06-22T13:47:48;9.35;;;2.88;;
29854;SDS011;16733;48.738;9.106;2023-06-22T13:50:14;11.02;;;3.53;;
29854;SDS011;16733;48.738;9.106;2023-06-22T13:52:40;8.35;;;3.00;;
29854;SDS011;16733;48.738;9.106;2023-06-22T13:55:06;19.52;;;3.40;;
29854;SDS011;16733;48.738;9.106;2023-06-22T13:57:33;9.27;;;3.05;;
29854;SDS011;16733;48.738;9.106;2023-06-22T13:59:59;9.55;;;3.17;;
29854;SDS011;16733;48.738;9.106;2023-06-22T14:02:26;11.98;;;3.15;;
29854;SDS011;16733;48.738;9.106;2023-06-22T14:04:53;10.27;;;3.10;;
29854;SDS011;16733;48.738;9.106;2023-06-22T14:07:19;13.32;;;3.20;;
29854;SDS011;16733;48.738;9.106;2023-06-22T14:09:45;11.85;;;3.10;;
29854;SDS011;16733;48.738;9.106;2023-06-22T14:12:12;16.08;;;3.03;;
29854;SDS011;16733;48.738;9.106;2023-06-22T14:14:38;9.82;;;2.70;;
29854;SDS011;16733;48.738;9.106;2023-06-22T14:17:06;8.27;;;3.53;;
29854;SDS011;16733;48.738;9.106;2023-06-22T14:19:31;10.10;;;3.00;;
29854;SDS011;16733;48.738;9.106;2023-06-22T14:21:57;11.95;;;3.22;;
29854;SDS011;16733;48.738;9.106;2023-06-22T14:24:23;9.93;;;2.95;;
29854;SDS011;16733;48.738;9.106;2023-06-22T14:26:49;14.98;;;3.33;;
29854;SDS011;16733;48.738;9.106;2023-06-22T14:29:14;5.60;;;2.30;;
29854;SDS011;16733;48.738;9.106;2023-06-22T14:31:40;14.82;;;3.22;;
29854;SDS011;16733;48.738;9.106;2023-06-22T14:34:06;6.82;;;2.60;;
29854;SDS011;16733;48.738;9.106;2023-06-22T14:36:31;9.98;;;3.00;;
29854;SDS011;16733;48.738;9.106;2023-06-22T14:38:57;9.15;;;2.28;;
29854;SDS011;16733;48.738;9.106;2023-06-22T14:41:23;10.27;;;2.45;;
29854;SDS011;16733;48.738;9.106;2023-06-22T14:43:51;7.55;;;2.03;;
29854;SDS011;16733;48.738;9.106;2023-06-22T14:46:17;4.45;;;1.95;;